createdAt,value
2019-04-25T10:41:53.941Z,14.05
2019-04-25T10:46:50.971Z,22.27
2019-04-25T10:49:21.222Z,22.67
2019-04-25T10:51:48.903Z,18.30
2019-04-25T10:54:20.878Z,14.80
2019-04-25T10:59:19.493Z,20.32
2019-04-25T11:01:49.801Z,18.62
2019-04-25T11:04:17.551Z,14.90
2019-04-25T11:06:47.969Z,19.37
2019-04-25T11:11:48.800Z,14.78
2019-04-25T11:14:19.032Z,18.50
2019-04-25T11:16:46.704Z,14.13
2019-04-25T11:19:18.808Z,15.10
2019-04-25T11:21:49.582Z,11.38
2019-04-25T11:24:19.182Z,18.50
2019-04-25T11:26:51.321Z,14.15
2019-04-25T11:29:20.820Z,18.07
2019-04-25T11:31:50.931Z,12.30
2019-04-25T11:36:50.735Z,16.73
2019-04-25T11:39:45.056Z,23.22
2019-04-25T11:42:17.274Z,20.85
2019-04-25T11:44:47.822Z,22.40
2019-04-25T11:49:49.137Z,19.62
2019-04-25T11:52:27.362Z,20.17
2019-04-25T11:54:54.790Z,17.30
2019-04-25T11:57:25.023Z,16.65
2019-04-25T11:59:54.219Z,13.15
2019-04-25T12:02:27.801Z,15.98
2019-04-25T12:04:55.621Z,20.60
2019-04-25T12:07:26.477Z,24.20
2019-04-25T12:09:57.100Z,22.17
2019-04-25T12:12:24.860Z,15.25
2019-04-25T12:14:55.478Z,18.27
2019-04-25T12:19:55.285Z,17.48
2019-04-25T12:22:26.488Z,11.83
2019-04-25T12:27:25.216Z,14.07
2019-04-25T12:32:23.790Z,12.00
2019-04-25T12:34:58.092Z,21.15
2019-04-25T12:37:29.874Z,19.10
2019-04-25T12:40:00.602Z,15.58
2019-04-25T12:42:28.309Z,18.65
2019-04-25T12:45:06.753Z,17.75
2019-04-25T12:47:35.976Z,21.87
2019-04-25T12:50:07.980Z,18.37
2019-04-25T12:55:10.907Z,20.82
2019-04-25T12:57:41.653Z,21.48
2019-04-25T13:00:09.667Z,22.65
2019-04-25T13:02:40.525Z,20.70
2019-04-25T13:05:08.220Z,17.42
2019-04-25T13:07:39.951Z,18.25
2019-04-25T13:10:10.659Z,16.10
2019-04-25T13:12:38.459Z,18.05
2019-04-25T13:15:10.825Z,16.17
2019-04-25T13:17:38.854Z,14.90
2019-04-25T13:20:09.393Z,23.75
2019-04-25T13:22:40.824Z,17.12
2019-04-25T13:25:16.533Z,12.95
2019-04-25T13:28:08.159Z,17.42
2019-04-25T13:31:03.978Z,17.73
2019-04-25T13:33:46.732Z,17.65
2019-04-25T13:38:48.066Z,18.80
2019-04-25T13:41:21.714Z,14.58
2019-04-25T13:43:49.617Z,15.72
2019-04-25T13:46:24.345Z,17.52
2019-04-25T13:48:50.296Z,22.70
2019-04-25T13:51:22.995Z,14.43
2019-04-25T13:53:54.556Z,25.25
2019-04-25T13:56:25.865Z,29.35
2019-04-25T13:58:57.490Z,15.28
2019-04-25T14:01:26.391Z,15.83
2019-04-25T14:03:57.710Z,14.38
2019-04-25T14:06:44.368Z,17.32
2019-04-25T14:09:18.177Z,15.95
2019-04-25T14:11:50.627Z,18.75
2019-04-25T14:22:47.692Z,20.85
2019-04-25T14:25:19.455Z,22.60
2019-04-25T14:30:45.016Z,20.05
2019-04-25T14:33:27.597Z,13.25
2019-04-25T14:35:59.137Z,14.85
2019-04-25T14:38:33.869Z,16.80
2019-04-25T14:41:02.137Z,19.87
2019-04-25T14:43:33.546Z,15.68
2019-04-25T14:48:37.594Z,22.20
2019-04-25T14:51:10.748Z,24.92
2019-04-25T14:53:37.970Z,23.07
2019-04-25T14:58:57.901Z,17.37
2019-04-25T15:01:30.263Z,12.45
2019-04-25T15:04:02.109Z,14.80
2019-04-25T15:06:32.910Z,15.68
2019-04-25T15:09:02.406Z,19.95
2019-04-25T15:11:36.547Z,16.50
2019-04-25T15:14:06.247Z,8.73
2019-04-25T15:16:37.941Z,17.98
2019-04-25T15:21:36.573Z,16.80
2019-04-25T15:24:08.429Z,19.12
2019-04-25T15:26:36.269Z,16.30
2019-04-25T15:29:07.069Z,19.55
2019-04-25T15:31:34.942Z,17.27
2019-04-25T15:34:05.838Z,15.80
2019-04-25T15:42:14.366Z,17.50
2019-04-25T15:44:43.526Z,18.12
2019-04-25T15:47:16.807Z,18.10
2019-04-25T15:49:47.430Z,20.30
2019-04-25T15:52:18.150Z,16.30
2019-04-25T15:54:46.070Z,18.10
2019-04-25T15:57:16.954Z,14.73
2019-04-25T15:59:47.589Z,20.00
2019-04-25T16:02:15.470Z,19.98
2019-04-25T16:04:45.912Z,25.37
2019-04-25T16:09:45.606Z,15.08
2019-04-25T16:12:16.429Z,19.73
2019-04-25T16:14:44.313Z,28.67
2019-04-25T16:17:14.910Z,19.57
2019-04-25T16:19:46.986Z,22.45
2019-04-25T16:22:17.718Z,30.85
2019-04-25T16:27:17.636Z,25.97
2019-04-25T16:29:47.846Z,26.82
2019-04-25T16:32:20.860Z,31.95
2019-04-25T16:34:47.616Z,18.10
2019-04-25T16:39:48.124Z,18.70
2019-04-25T16:42:18.406Z,20.08
2019-04-25T16:44:46.232Z,24.95
2019-04-25T16:47:19.891Z,25.52
2019-04-25T16:52:20.968Z,18.70
2019-04-25T16:54:51.269Z,33.23
2019-04-25T16:57:19.128Z,19.70
2019-04-25T16:59:49.492Z,18.27
2019-04-25T17:04:49.390Z,17.32
2019-04-25T17:07:19.870Z,21.45
2019-04-25T17:09:47.760Z,16.12
2019-04-25T17:12:20.821Z,18.70
2019-04-25T17:15:10.309Z,18.90
2019-04-25T17:20:24.821Z,19.87
2019-04-25T17:22:52.818Z,22.82
2019-04-25T17:25:25.146Z,32.53
2019-04-25T17:30:27.277Z,16.55
2019-04-25T17:33:16.910Z,21.73
2019-04-25T17:36:02.062Z,18.00
2019-04-25T17:38:52.061Z,26.27
2019-04-25T17:41:24.841Z,25.00
2019-04-25T17:43:52.541Z,29.35
2019-04-25T17:46:23.793Z,33.67
2019-04-25T17:48:53.987Z,33.78
2019-04-25T17:51:23.543Z,34.90
2019-04-25T17:53:53.725Z,33.58
2019-04-25T17:56:22.379Z,33.85
2019-04-25T17:58:51.807Z,23.50
2019-04-25T18:01:24.430Z,36.50
2019-04-25T18:03:54.813Z,36.75
2019-04-25T18:06:27.523Z,31.45
2019-04-25T18:08:55.550Z,39.83
2019-04-25T18:11:25.964Z,34.35
2019-04-25T18:16:36.180Z,29.10
2019-04-25T18:19:03.982Z,31.35
2019-04-25T18:21:35.406Z,21.00
2019-04-25T18:24:25.494Z,43.50
2019-04-25T19:19:21.668Z,29.77
2019-04-25T19:21:52.773Z,25.55
2019-04-25T19:24:21.371Z,29.18
2019-04-25T19:26:54.253Z,32.48
2019-04-25T19:29:22.016Z,24.40
2019-04-25T19:31:53.302Z,27.95
2019-04-25T19:34:23.534Z,24.25
2019-04-25T19:36:51.247Z,24.80
2019-04-25T19:39:24.135Z,35.88
2019-04-25T19:44:25.164Z,27.62
2019-04-25T19:46:55.396Z,28.23
2019-04-25T19:51:52.461Z,36.50
2019-04-25T19:56:51.756Z,36.03
2019-04-25T19:59:22.291Z,27.62
2019-04-25T20:01:50.579Z,28.15
2019-04-25T20:10:10.291Z,29.90
2019-04-25T20:12:38.071Z,28.80
2019-04-25T20:15:09.537Z,37.83
2019-04-25T20:17:37.334Z,30.10
2019-04-25T20:20:08.320Z,25.20
2019-04-25T20:22:38.484Z,45.80
2019-04-25T20:25:06.365Z,39.00
2019-04-25T20:27:36.891Z,33.25
2019-04-25T20:32:37.683Z,26.10
2019-04-25T20:35:08.250Z,34.88
2019-04-25T20:37:36.068Z,31.12
2019-04-25T20:40:08.491Z,39.73
2019-04-25T20:42:36.212Z,35.45
2019-04-25T20:45:08.176Z,43.78
2019-04-25T20:47:38.332Z,46.25
2019-04-25T20:50:06.049Z,52.85
2019-04-25T20:52:38.135Z,33.53
2019-04-25T20:57:37.126Z,38.23
2019-04-25T21:00:08.489Z,37.88
2019-04-25T21:02:37.383Z,44.25
2019-04-25T21:05:07.807Z,52.27
2019-04-25T21:10:07.207Z,33.98
2019-04-25T21:12:37.372Z,40.40
2019-04-25T21:15:05.059Z,32.13
2019-04-25T21:17:39.521Z,34.40
2019-04-25T21:20:07.252Z,30.10
2019-04-25T21:22:37.619Z,32.17
2019-04-25T21:25:08.286Z,24.27
2019-04-25T21:27:36.087Z,32.93
2019-04-25T21:30:07.032Z,32.25
2019-04-25T21:32:57.217Z,28.15
2019-04-25T21:37:57.514Z,37.33
2019-04-25T21:40:34.075Z,25.40
2019-04-25T21:43:10.043Z,32.42
2019-04-25T21:45:40.710Z,32.10
2019-04-25T21:48:10.566Z,31.60
2019-04-25T21:50:41.087Z,32.60
2019-04-25T21:55:37.780Z,34.60
2019-04-25T21:58:08.331Z,32.65
2019-04-25T22:00:36.327Z,27.75
2019-04-25T22:03:08.811Z,31.90
2019-04-25T22:05:36.818Z,25.72
2019-04-25T22:08:07.305Z,49.83
2019-04-25T22:10:42.100Z,28.87
2019-04-25T22:13:16.187Z,31.23
2019-04-25T22:15:41.749Z,35.03
2019-04-25T22:18:09.492Z,32.88
2019-04-25T22:20:39.654Z,27.37
2019-04-25T22:23:10.166Z,27.55
2019-04-25T22:25:38.327Z,32.90
2019-04-25T22:28:08.694Z,33.48
2019-04-25T22:33:23.555Z,30.80
2019-04-25T22:35:52.350Z,32.55
2019-04-25T22:38:23.011Z,30.68
2019-04-25T22:43:22.053Z,34.80
2019-04-25T22:45:52.669Z,31.82
2019-04-25T22:48:20.494Z,36.08
2019-04-25T22:50:53.087Z,31.02
2019-04-25T22:53:25.780Z,32.55
2019-04-25T22:55:54.369Z,30.02
2019-04-25T22:58:24.635Z,26.75
2019-04-25T23:00:53.259Z,31.73
2019-04-25T23:03:31.086Z,29.37
2019-04-25T23:05:58.846Z,30.17
2019-04-25T23:08:29.446Z,36.58
2019-04-25T23:10:59.595Z,32.00
2019-04-25T23:13:27.334Z,32.10
2019-04-25T23:15:57.605Z,33.85
2019-04-25T23:18:25.651Z,32.83
2019-04-25T23:20:55.846Z,28.67
2019-04-25T23:23:26.439Z,33.20
2019-04-25T23:25:54.337Z,28.92
2019-04-25T23:28:27.335Z,34.80
2019-04-25T23:33:24.410Z,39.08
2019-04-25T23:35:54.827Z,35.80
2019-04-25T23:38:22.526Z,35.43
2019-04-25T23:40:52.607Z,35.85
2019-04-25T23:43:23.087Z,32.50
2019-04-25T23:48:20.041Z,41.90
2019-04-25T23:53:19.247Z,30.50
2019-04-25T23:55:49.816Z,34.23
